sensor_id;sensor_type;location;lat;lon;timestamp;pressure;altitude;pressure_sealevel;temperature;humidity
78845;BME280;68195;50.854;2.860;2023-10-19T00:01:58;99010.91;;;15.46;100.00
78845;BME280;68195;50.854;2.860;2023-10-19T00:04:26;99022.19;;;15.56;100.00
78845;BME280;68195;50.854;2.860;2023-10-19T00:06:56;99017.09;;;15.54;100.00
78845;BME280;68195;50.854;2.860;2023-10-19T00:09:24;99023.84;;;15.57;100.00
78845;BME280;68195;50.854;2.860;2023-10-19T00:11:51;99021.59;;;15.44;100.00
78845;BME280;68195;50.854;2.860;2023-10-19T00:14:17;99035.03;;;15.59;100.00
78845;BME280;68195;50.854;2.860;2023-10-19T00:16:43;99050.31;;;15.55;100.00
78845;BME280;68195;50.854;2.860;2023-10-19T00:19:26;99038.72;;;15.48;100.00
78845;BME280;68195;50.854;2.860;2023-10-19T00:21:58;99044.84;;;15.49;100.00
78845;BME280;68195;50.854;2.860;2023-10-19T00:24:37;99022.94;;;15.30;100.00
78845;BME280;68195;50.854;2.860;2023-10-19T00:27:06;99028.97;;;15.23;100.00
78845;BME280;68195;50.854;2.860;2023-10-19T00:29:41;99045.47;;;15.33;100.00
78845;BME280;68195;50.854;2.860;2023-10-19T00:32:13;99055.97;;;15.43;100.00
78845;BME280;68195;50.854;2.860;2023-10-19T00:34:43;99055.41;;;15.39;100.00
78845;BME280;68195;50.854;2.860;2023-10-19T00:37:17;99051.66;;;15.42;100.00
78845;BME280;68195;50.854;2.860;2023-10-19T00:39:47;99061.50;;;15.39;100.00
78845;BME280;68195;50.854;2.860;2023-10-19T00:42:19;99039.28;;;15.06;100.00
78845;BME280;68195;50.854;2.860;2023-10-19T00:44:49;99065.16;;;15.29;100.00
78845;BME280;68195;50.854;2.860;2023-10-19T00:47:15;99054.22;;;15.33;100.00
78845;BME280;68195;50.854;2.860;2023-10-19T00:49:47;99068.28;;;15.42;100.00
78845;BME280;68195;50.854;2.860;2023-10-19T00:52:16;99050.16;;;15.39;100.00
78845;BME280;68195;50.854;2.860;2023-10-19T00:54:46;99075.72;;;15.47;100.00
78845;BME280;68195;50.854;2.860;2023-10-19T00:57:17;99069.25;;;15.41;100.00
78845;BME280;68195;50.854;2.860;2023-10-19T00:59:47;99063.06;;;15.32;100.00
78845;BME280;68195;50.854;2.860;2023-10-19T01:02:14;99075.09;;;15.35;100.00
78845;BME280;68195;50.854;2.860;2023-10-19T01:04:46;99080.09;;;15.38;100.00
78845;BME280;68195;50.854;2.860;2023-10-19T01:07:18;99068.19;;;15.34;100.00
78845;BME280;68195;50.854;2.860;2023-10-19T01:10:10;99057.88;;;15.23;100.00
78845;BME280;68195;50.854;2.860;2023-10-19T01:12:53;99075.41;;;15.32;100.00
78845;BME280;68195;50.854;2.860;2023-10-19T01:15:21;99082.88;;;15.27;100.00
78845;BME280;68195;50.854;2.860;2023-10-19T01:17:56;99078.63;;;15.26;100.00
78845;BME280;68195;50.854;2.860;2023-10-19T01:20:24;99083.44;;;15.30;100.00
78845;BME280;68195;50.854;2.860;2023-10-19T01:25:56;99074.72;;;15.30;100.00
78845;BME280;68195;50.854;2.860;2023-10-19T01:28:36;99066.84;;;15.30;100.00
78845;BME280;68195;50.854;2.860;2023-10-19T01:31:09;99071.56;;;15.44;100.00
78845;BME280;68195;50.854;2.860;2023-10-19T01:33:42;99052.78;;;15.21;100.00
78845;BME280;68195;50.854;2.860;2023-10-19T01:36:09;99073.72;;;15.31;100.00
78845;BME280;68195;50.854;2.860;2023-10-19T01:38:41;99044.47;;;15.16;100.00
78845;BME280;68195;50.854;2.860;2023-10-19T01:41:09;99073.16;;;15.37;100.00
78845;BME280;68195;50.854;2.860;2023-10-19T01:43:46;99055.63;;;15.28;100.00
78845;BME280;68195;50.854;2.860;2023-10-19T01:46:14;99059.63;;;15.32;100.00
78845;BME280;68195;50.854;2.860;2023-10-19T01:48:48;99048.69;;;15.27;100.00
78845;BME280;68195;50.854;2.860;2023-10-19T01:51:22;99065.25;;;15.37;100.00
78845;BME280;68195;50.854;2.860;2023-10-19T01:53:50;99031.09;;;15.09;100.00
78845;BME280;68195;50.854;2.860;2023-10-19T01:56:16;99066.97;;;15.28;100.00
78845;BME280;68195;50.854;2.860;2023-10-19T01:58:43;99066.88;;;15.20;100.00
78845;BME280;68195;50.854;2.860;2023-10-19T02:01:13;99041.56;;;15.19;100.00
78845;BME280;68195;50.854;2.860;2023-10-19T02:03:40;99046.38;;;15.24;100.00
78845;BME280;68195;50.854;2.860;2023-10-19T02:06:12;99019.72;;;15.18;100.00
78845;BME280;68195;50.854;2.860;2023-10-19T02:08:55;99049.00;;;15.24;100.00
78845;BME280;68195;50.854;2.860;2023-10-19T02:11:25;99015.19;;;15.11;100.00
78845;BME280;68195;50.854;2.860;2023-10-19T02:13:53;99043.31;;;15.28;100.00
78845;BME280;68195;50.854;2.860;2023-10-19T02:16:29;99033.22;;;15.24;100.00
78845;BME280;68195;50.854;2.860;2023-10-19T02:18:55;99039.03;;;15.27;100.00
78845;BME280;68195;50.854;2.860;2023-10-19T02:21:21;99024.66;;;15.22;100.00
78845;BME280;68195;50.854;2.860;2023-10-19T02:23:58;99008.47;;;14.98;100.00
78845;BME280;68195;50.854;2.860;2023-10-19T02:26:26;99011.06;;;15.08;100.00
78845;BME280;68195;50.854;2.860;2023-10-19T02:28:52;99020.75;;;15.26;100.00
78845;BME280;68195;50.854;2.860;2023-10-19T02:31:18;99019.09;;;15.25;100.00
78845;BME280;68195;50.854;2.860;2023-10-19T02:33:49;99021.59;;;15.26;100.00
78845;BME280;68195;50.854;2.860;2023-10-19T02:36:21;99012.66;;;15.19;100.00
78845;BME280;68195;50.854;2.860;2023-10-19T02:38:46;99018.28;;;15.24;100.00
78845;BME280;68195;50.854;2.860;2023-10-19T02:41:18;98995.97;;;15.10;100.00
78845;BME280;68195;50.854;2.860;2023-10-19T02:43:47;99019.53;;;15.20;100.00
78845;BME280;68195;50.854;2.860;2023-10-19T02:46:33;99005.22;;;15.14;100.00
78845;BME280;68195;50.854;2.860;2023-10-19T02:49:02;99013.78;;;15.16;100.00
78845;BME280;68195;50.854;2.860;2023-10-19T02:51:29;99010.97;;;15.18;100.00
78845;BME280;68195;50.854;2.860;2023-10-19T02:53:55;99004.06;;;15.17;100.00
78845;BME280;68195;50.854;2.860;2023-10-19T02:56:20;99015.28;;;15.19;100.00
78845;BME280;68195;50.854;2.860;2023-10-19T02:58:48;98998.94;;;14.97;100.00
78845;BME280;68195;50.854;2.860;2023-10-19T03:01:15;99007.97;;;15.13;100.00
78845;BME280;68195;50.854;2.860;2023-10-19T03:03:50;98993.31;;;15.10;100.00
78845;BME280;68195;50.854;2.860;2023-10-19T03:06:21;98994.97;;;15.11;100.00
78845;BME280;68195;50.854;2.860;2023-10-19T03:08:48;98980.09;;;15.02;100.00
78845;BME280;68195;50.854;2.860;2023-10-19T03:11:28;98997.47;;;15.13;100.00
78845;BME280;68195;50.854;2.860;2023-10-19T03:13:57;98992.66;;;15.08;100.00
78845;BME280;68195;50.854;2.860;2023-10-19T03:16:23;98999.50;;;15.19;100.00
78845;BME280;68195;50.854;2.860;2023-10-19T03:18:49;99012.19;;;15.24;100.00
78845;BME280;68195;50.854;2.860;2023-10-19T03:21:16;99006.25;;;15.22;100.00
78845;BME280;68195;50.854;2.860;2023-10-19T03:23:43;98996.88;;;15.19;100.00
78845;BME280;68195;50.854;2.860;2023-10-19T03:26:08;99013.19;;;15.23;100.00
78845;BME280;68195;50.854;2.860;2023-10-19T03:28:43;98990.69;;;15.10;100.00
78845;BME280;68195;50.854;2.860;2023-10-19T03:31:21;98978.28;;;15.03;100.00
78845;BME280;68195;50.854;2.860;2023-10-19T03:33:46;98987.03;;;15.03;100.00
78845;BME280;68195;50.854;2.860;2023-10-19T03:36:31;98994.16;;;15.11;100.00
78845;BME280;68195;50.854;2.860;2023-10-19T03:39:00;98977.69;;;15.09;100.00
78845;BME280;68195;50.854;2.860;2023-10-19T03:41:36;98991.06;;;15.15;100.00
78845;BME280;68195;50.854;2.860;2023-10-19T03:44:01;98988.88;;;15.11;100.00
78845;BME280;68195;50.854;2.860;2023-10-19T03:46:31;98972.88;;;15.04;100.00
78845;BME280;68195;50.854;2.860;2023-10-19T03:48:57;98976.88;;;15.08;100.00
78845;BME280;68195;50.854;2.860;2023-10-19T03:51:36;98970.34;;;15.12;100.00
78845;BME280;68195;50.854;2.860;2023-10-19T03:54:08;98971.03;;;15.14;100.00
78845;BME280;68195;50.854;2.860;2023-10-19T03:56:49;98978.38;;;15.11;100.00
78845;BME280;68195;50.854;2.860;2023-10-19T03:59:20;98988.22;;;15.09;100.00
78845;BME280;68195;50.854;2.860;2023-10-19T04:01:46;98977.56;;;15.10;100.00
78845;BME280;68195;50.854;2.860;2023-10-19T04:04:12;98990.34;;;15.23;100.00
78845;BME280;68195;50.854;2.860;2023-10-19T04:06:39;98962.38;;;15.04;100.00
78845;BME280;68195;50.854;2.860;2023-10-19T04:09:19;98971.63;;;15.08;100.00
78845;BME280;68195;50.854;2.860;2023-10-19T04:11:44;98984.75;;;15.26;100.00
78845;BME280;68195;50.854;2.860;2023-10-19T04:14:16;98980.31;;;15.27;100.00
78845;BME280;68195;50.854;2.860;2023-10-19T04:16:46;98957.41;;;15.01;100.00
78845;BME280;68195;50.854;2.860;2023-10-19T04:19:14;98976.97;;;15.16;100.00
78845;BME280;68195;50.854;2.860;2023-10-19T04:21:41;98978.47;;;15.19;100.00
78845;BME280;68195;50.854;2.860;2023-10-19T04:24:10;98976.50;;;15.21;100.00
78845;BME280;68195;50.854;2.860;2023-10-19T04:26:36;98943.66;;;15.07;100.00
78845;BME280;68195;50.854;2.860;2023-10-19T04:29:06;98938.84;;;15.03;100.00
78845;BME280;68195;50.854;2.860;2023-10-19T04:31:42;98974.38;;;15.25;100.00
78845;BME280;68195;50.854;2.860;2023-10-19T04:34:20;98977.41;;;15.30;100.00
78845;BME280;68195;50.854;2.860;2023-10-19T04:36:49;98932.47;;;15.05;100.00
78845;BME280;68195;50.854;2.860;2023-10-19T04:39:15;98930.69;;;15.06;100.00
78845;BME280;68195;50.854;2.860;2023-10-19T04:41:44;98958.09;;;15.21;100.00
78845;BME280;68195;50.854;2.860;2023-10-19T04:44:10;98971.63;;;15.26;100.00
78845;BME280;68195;50.854;2.860;2023-10-19T04:46:36;98953.06;;;15.10;100.00
78845;BME280;68195;50.854;2.860;2023-10-19T04:49:01;98966.81;;;15.22;100.00
78845;BME280;68195;50.854;2.860;2023-10-19T04:51:27;98935.84;;;14.97;100.00
78845;BME280;68195;50.854;2.860;2023-10-19T04:53:54;98926.84;;;15.00;100.00
78845;BME280;68195;50.854;2.860;2023-10-19T04:56:21;98942.56;;;15.10;100.00
78845;BME280;68195;50.854;2.860;2023-10-19T04:58:46;98943.75;;;15.15;100.00
78845;BME280;68195;50.854;2.860;2023-10-19T05:01:12;98954.94;;;15.17;100.00
78845;BME280;68195;50.854;2.860;2023-10-19T05:03:38;98956.53;;;15.10;100.00
78845;BME280;68195;50.854;2.860;2023-10-19T05:06:06;98969.06;;;15.16;100.00
78845;BME280;68195;50.854;2.860;2023-10-19T05:08:33;98931.72;;;14.95;100.00
78845;BME280;68195;50.854;2.860;2023-10-19T05:11:02;98924.81;;;14.94;100.00
78845;BME280;68195;50.854;2.860;2023-10-19T05:13:31;98928.34;;;15.03;100.00
78845;BME280;68195;50.854;2.860;2023-10-19T05:15:58;98926.47;;;14.95;100.00
78845;BME280;68195;50.854;2.860;2023-10-19T05:18:25;98935.34;;;15.12;100.00
78845;BME280;68195;50.854;2.860;2023-10-19T05:20:51;98915.41;;;14.91;100.00
78845;BME280;68195;50.854;2.860;2023-10-19T05:23:23;98913.31;;;14.95;100.00
78845;BME280;68195;50.854;2.860;2023-10-19T05:25:53;98926.09;;;15.08;100.00
78845;BME280;68195;50.854;2.860;2023-10-19T05:28:20;98913.31;;;14.95;100.00
78845;BME280;68195;50.854;2.860;2023-10-19T05:30:49;98922.56;;;14.99;100.00
78845;BME280;68195;50.854;2.860;2023-10-19T05:33:17;98918.72;;;14.93;100.00
78845;BME280;68195;50.854;2.860;2023-10-19T05:35:47;98927.66;;;15.01;100.00
78845;BME280;68195;50.854;2.860;2023-10-19T05:38:13;98924.97;;;14.92;100.00
78845;BME280;68195;50.854;2.860;2023-10-19T05:40:40;98931.13;;;15.01;100.00
78845;BME280;68195;50.854;2.860;2023-10-19T05:43:11;98921.22;;;14.95;100.00
78845;BME280;68195;50.854;2.860;2023-10-19T05:45:41;98923.16;;;14.93;100.00
78845;BME280;68195;50.854;2.860;2023-10-19T05:48:10;98927.59;;;14.92;100.00
78845;BME280;68195;50.854;2.860;2023-10-19T05:50:36;98899.66;;;14.73;100.00
78845;BME280;68195;50.854;2.860;2023-10-19T05:53:03;98931.88;;;14.93;100.00
78845;BME280;68195;50.854;2.860;2023-10-19T05:55:29;98931.19;;;14.91;100.00
78845;BME280;68195;50.854;2.860;2023-10-19T05:57:54;98937.56;;;14.89;100.00
78845;BME280;68195;50.854;2.860;2023-10-19T06:00:22;98934.25;;;14.87;100.00
78845;BME280;68195;50.854;2.860;2023-10-19T06:02:53;98934.25;;;14.87;100.00
78845;BME280;68195;50.854;2.860;2023-10-19T06:05:22;98899.56;;;14.65;100.00
78845;BME280;68195;50.854;2.860;2023-10-19T06:07:50;98934.25;;;14.87;100.00
78845;BME280;68195;50.854;2.860;2023-10-19T06:10:18;98913.69;;;14.82;100.00
78845;BME280;68195;50.854;2.860;2023-10-19T06:12:46;98927.34;;;14.86;100.00
78845;BME280;68195;50.854;2.860;2023-10-19T06:15:13;98916.16;;;14.84;100.00
78845;BME280;68195;50.854;2.860;2023-10-19T06:17:40;98892.03;;;14.70;100.00
78845;BME280;68195;50.854;2.860;2023-10-19T06:20:10;98920.69;;;14.91;100.00
78845;BME280;68195;50.854;2.860;2023-10-19T06:22:49;98915.50;;;14.82;100.00
78845;BME280;68195;50.854;2.860;2023-10-19T06:25:19;98933.69;;;14.93;100.00
78845;BME280;68195;50.854;2.860;2023-10-19T06:27:48;98927.34;;;14.86;100.00
78845;BME280;68195;50.854;2.860;2023-10-19T06:30:20;98898.97;;;14.71;100.00
78845;BME280;68195;50.854;2.860;2023-10-19T06:32:49;98938.63;;;14.96;100.00
78845;BME280;68195;50.854;2.860;2023-10-19T06:35:16;98920.69;;;14.91;100.00
78845;BME280;68195;50.854;2.860;2023-10-19T06:37:44;98915.94;;;14.95;100.00
78845;BME280;68195;50.854;2.860;2023-10-19T06:40:10;98928.50;;;15.01;100.00
78845;BME280;68195;50.854;2.860;2023-10-19T06:42:37;98929.19;;;15.03;100.00
78845;BME280;68195;50.854;2.860;2023-10-19T06:45:06;98927.50;;;15.02;100.00
78845;BME280;68195;50.854;2.860;2023-10-19T06:47:32;98906.84;;;14.89;100.00
78845;BME280;68195;50.854;2.860;2023-10-19T06:50:04;98926.56;;;15.03;100.00
78845;BME280;68195;50.854;2.860;2023-10-19T06:52:34;98921.22;;;14.95;100.00
78845;BME280;68195;50.854;2.860;2023-10-19T06:55:02;98906.13;;;14.97;100.00
78845;BME280;68195;50.854;2.860;2023-10-19T06:57:28;98915.66;;;14.98;100.00
78845;BME280;68195;50.854;2.860;2023-10-19T06:59:53;98933.44;;;15.04;100.00
78845;BME280;68195;50.854;2.860;2023-10-19T07:02:19;98905.91;;;14.90;100.00
78845;BME280;68195;50.854;2.860;2023-10-19T07:04:47;98911.38;;;14.97;100.00
78845;BME280;68195;50.854;2.860;2023-10-19T07:07:13;98926.56;;;15.03;100.00
78845;BME280;68195;50.854;2.860;2023-10-19T07:09:39;98892.28;;;14.95;100.00
78845;BME280;68195;50.854;2.860;2023-10-19T07:12:04;98902.25;;;15.09;100.00
78845;BME280;68195;50.854;2.860;2023-10-19T07:14:33;98878.97;;;14.96;100.00
78845;BME280;68195;50.854;2.860;2023-10-19T07:16:58;98912.50;;;15.12;100.00
78845;BME280;68195;50.854;2.860;2023-10-19T07:19:27;98898.97;;;15.07;100.00
78845;BME280;68195;50.854;2.860;2023-10-19T07:21:56;98899.81;;;15.08;100.00
78845;BME280;68195;50.854;2.860;2023-10-19T07:24:29;98874.94;;;15.02;100.00
78845;BME280;68195;50.854;2.860;2023-10-19T07:26:54;98909.63;;;15.24;100.00
78845;BME280;68195;50.854;2.860;2023-10-19T07:29:31;98891.00;;;15.17;100.00
78845;BME280;68195;50.854;2.860;2023-10-19T07:31:57;98878.69;;;15.17;100.00
78845;BME280;68195;50.854;2.860;2023-10-19T07:34:24;98887.00;;;15.31;100.00
78845;BME280;68195;50.854;2.860;2023-10-19T07:36:54;98866.28;;;15.28;100.00
78845;BME280;68195;50.854;2.860;2023-10-19T07:39:20;98886.13;;;15.48;100.00
78845;BME280;68195;50.854;2.860;2023-10-19T07:41:45;98884.56;;;15.55;100.00
78845;BME280;68195;50.854;2.860;2023-10-19T07:44:12;98872.03;;;15.49;100.00
78845;BME280;68195;50.854;2.860;2023-10-19T07:46:37;98896.06;;;15.54;100.00
78845;BME280;68195;50.854;2.860;2023-10-19T07:49:03;98913.19;;;15.58;100.00
78845;BME280;68195;50.854;2.860;2023-10-19T07:51:33;98905.56;;;15.47;100.00
78845;BME280;68195;50.854;2.860;2023-10-19T07:54:01;98898.94;;;15.43;100.00
78845;BME280;68195;50.854;2.860;2023-10-19T07:56:26;98910.41;;;15.60;100.00
78845;BME280;68195;50.854;2.860;2023-10-19T07:58:51;98887.88;;;15.57;100.00
78845;BME280;68195;50.854;2.860;2023-10-19T08:01:17;98905.34;;;15.67;100.00
78845;BME280;68195;50.854;2.860;2023-10-19T08:03:42;98896.13;;;15.63;100.00
78845;BME280;68195;50.854;2.860;2023-10-19T08:06:07;98896.25;;;15.61;100.00
78845;BME280;68195;50.854;2.860;2023-10-19T08:08:35;98862.78;;;15.45;100.00
78845;BME280;68195;50.854;2.860;2023-10-19T08:11:03;98889.25;;;15.70;100.00
78845;BME280;68195;50.854;2.860;2023-10-19T08:13:29;98904.22;;;15.69;100.00
78845;BME280;68195;50.854;2.860;2023-10-19T08:15:54;98885.94;;;15.68;100.00
78845;BME280;68195;50.854;2.860;2023-10-19T08:18:20;98893.25;;;15.74;100.00
78845;BME280;68195;50.854;2.860;2023-10-19T08:20:50;98891.19;;;15.68;100.00
78845;BME280;68195;50.854;2.860;2023-10-19T08:23:15;98897.56;;;15.75;100.00
78845;BME280;68195;50.854;2.860;2023-10-19T08:25:48;98858.59;;;15.61;100.00
78845;BME280;68195;50.854;2.860;2023-10-19T08:28:16;98879.13;;;15.75;100.00
78845;BME280;68195;50.854;2.860;2023-10-19T08:30:44;98880.28;;;15.81;100.00
78845;BME280;68195;50.854;2.860;2023-10-19T08:33:22;98882.78;;;15.82;100.00
78845;BME280;68195;50.854;2.860;2023-10-19T08:35:47;98887.09;;;15.91;100.00
78845;BME280;68195;50.854;2.860;2023-10-19T08:38:12;98889.78;;;15.99;100.00
78845;BME280;68195;50.854;2.860;2023-10-19T08:40:38;98874.59;;;15.93;100.00
78845;BME280;68195;50.854;2.860;2023-10-19T08:43:05;98891.44;;;16.01;100.00
78845;BME280;68195;50.854;2.860;2023-10-19T08:45:41;98858.75;;;15.85;100.00
78845;BME280;68195;50.854;2.860;2023-10-19T08:48:07;98862.75;;;15.89;100.00
78845;BME280;68195;50.854;2.860;2023-10-19T08:50:34;98862.94;;;15.96;100.00
78845;BME280;68195;50.854;2.860;2023-10-19T08:53:02;98878.63;;;16.06;100.00
78845;BME280;68195;50.854;2.860;2023-10-19T08:55:31;98873.22;;;16.15;100.00
78845;BME280;68195;50.854;2.860;2023-10-19T08:58:02;98860.03;;;16.07;100.00
78845;BME280;68195;50.854;2.860;2023-10-19T09:00:46;98858.91;;;16.10;100.00
78845;BME280;68195;50.854;2.860;2023-10-19T09:03:21;98833.81;;;15.97;100.00
78845;BME280;68195;50.854;2.860;2023-10-19T09:05:49;98857.94;;;16.19;100.00
78845;BME280;68195;50.854;2.860;2023-10-19T09:08:19;98857.63;;;16.22;100.00
78845;BME280;68195;50.854;2.860;2023-10-19T09:10:50;98836.19;;;16.17;100.00
78845;BME280;68195;50.854;2.860;2023-10-19T09:13:20;98838.69;;;16.18;100.00
78845;BME280;68195;50.854;2.860;2023-10-19T09:15:48;98838.53;;;16.20;100.00
78845;BME280;68195;50.854;2.860;2023-10-19T09:18:25;98834.22;;;16.19;100.00
78845;BME280;68195;50.854;2.860;2023-10-19T09:20:57;98831.75;;;16.17;100.00
78845;BME280;68195;50.854;2.860;2023-10-19T09:23:46;98825.00;;;16.15;100.00
78845;BME280;68195;50.854;2.860;2023-10-19T09:26:12;98828.19;;;16.27;100.00
78845;BME280;68195;50.854;2.860;2023-10-19T09:28:39;98824.06;;;16.24;100.00
78845;BME280;68195;50.854;2.860;2023-10-19T09:31:09;98817.13;;;16.23;100.00
78845;BME280;68195;50.854;2.860;2023-10-19T09:33:35;98793.59;;;16.13;100.00
78845;BME280;68195;50.854;2.860;2023-10-19T09:36:02;98804.28;;;16.28;100.00
78845;BME280;68195;50.854;2.860;2023-10-19T09:38:29;98807.13;;;16.27;100.00
78845;BME280;68195;50.854;2.860;2023-10-19T09:40:57;98772.34;;;16.15;100.00
78845;BME280;68195;50.854;2.860;2023-10-19T09:43:48;98798.06;;;16.29;100.00
78845;BME280;68195;50.854;2.860;2023-10-19T09:46:28;98805.31;;;16.35;100.00
78845;BME280;68195;50.854;2.860;2023-10-19T09:48:57;98790.34;;;16.36;100.00
78845;BME280;68195;50.854;2.860;2023-10-19T09:51:23;98782.44;;;16.36;100.00
78845;BME280;68195;50.854;2.860;2023-10-19T09:54:14;98760.84;;;16.24;100.00
78845;BME280;68195;50.854;2.860;2023-10-19T09:56:47;98790.16;;;16.46;100.00
78845;BME280;68195;50.854;2.860;2023-10-19T09:59:29;98789.03;;;16.48;100.00
78845;BME280;68195;50.854;2.860;2023-10-19T10:02:07;98779.81;;;16.44;100.00
78845;BME280;68195;50.854;2.860;2023-10-19T10:04:34;98777.00;;;16.46;100.00
78845;BME280;68195;50.854;2.860;2023-10-19T10:07:04;98788.72;;;16.59;100.00
78845;BME280;68195;50.854;2.860;2023-10-19T10:09:34;98759.56;;;16.53;100.00
78845;BME280;68195;50.854;2.860;2023-10-19T10:12:18;98769.78;;;16.64;100.00
78845;BME280;68195;50.854;2.860;2023-10-19T10:15:01;98775.72;;;16.66;100.00
78845;BME280;68195;50.854;2.860;2023-10-19T10:17:28;98785.25;;;16.75;100.00
78845;BME280;68195;50.854;2.860;2023-10-19T10:22:42;98801.78;;;16.86;100.00
78845;BME280;68195;50.854;2.860;2023-10-19T10:25:25;98794.84;;;16.93;100.00
78845;BME280;68195;50.854;2.860;2023-10-19T10:27:51;98791.91;;;16.96;100.00
78845;BME280;68195;50.854;2.860;2023-10-19T10:30:19;98780.69;;;17.02;100.00
78845;BME280;68195;50.854;2.860;2023-10-19T10:32:45;98788.25;;;17.13;100.00
78845;BME280;68195;50.854;2.860;2023-10-19T10:38:10;98762.72;;;17.06;100.00
78845;BME280;68195;50.854;2.860;2023-10-19T10:40:46;98764.03;;;17.10;100.00
78845;BME280;68195;50.854;2.860;2023-10-19T10:43:17;98757.94;;;17.01;100.00
78845;BME280;68195;50.854;2.860;2023-10-19T10:45:43;98746.41;;;17.02;100.00
78845;BME280;68195;50.854;2.860;2023-10-19T10:48:18;98762.03;;;17.20;100.00
78845;BME280;68195;50.854;2.860;2023-10-19T10:50:47;98758.91;;;17.16;100.00
78845;BME280;68195;50.854;2.860;2023-10-19T10:53:14;98758.91;;;17.16;100.00
78845;BME280;68195;50.854;2.860;2023-10-19T10:55:47;98778.69;;;17.29;100.00
78845;BME280;68195;50.854;2.860;2023-10-19T10:58:17;98766.16;;;17.22;100.00
78845;BME280;68195;50.854;2.860;2023-10-19T11:00:43;98787.56;;;17.36;100.00
78845;BME280;68195;50.854;2.860;2023-10-19T11:03:12;98792.81;;;17.36;100.00
78845;BME280;68195;50.854;2.860;2023-10-19T11:05:43;98789.88;;;17.39;100.00
78845;BME280;68195;50.854;2.860;2023-10-19T11:08:13;98789.03;;;17.38;100.00
78845;BME280;68195;50.854;2.860;2023-10-19T11:10:40;98791.34;;;17.41;100.00
78845;BME280;68195;50.854;2.860;2023-10-19T11:13:16;98785.41;;;17.39;100.00
78845;BME280;68195;50.854;2.860;2023-10-19T11:15:49;98776.69;;;17.39;100.00
78845;BME280;68195;50.854;2.860;2023-10-19T11:20:57;98763.28;;;17.40;100.00
78845;BME280;68195;50.854;2.860;2023-10-19T11:23:47;98774.84;;;17.48;100.00
78845;BME280;68195;50.854;2.860;2023-10-19T11:26:18;98770.03;;;17.51;100.00
78845;BME280;68195;50.854;2.860;2023-10-19T11:28:44;98767.09;;;17.46;100.00
78845;BME280;68195;50.854;2.860;2023-10-19T11:31:19;98772.84;;;17.50;100.00
78845;BME280;68195;50.854;2.860;2023-10-19T11:33:46;98744.66;;;17.42;100.00
78845;BME280;68195;50.854;2.860;2023-10-19T11:36:14;98744.66;;;17.42;100.00
78845;BME280;68195;50.854;2.860;2023-10-19T11:38:44;98760.47;;;17.58;100.00
78845;BME280;68195;50.854;2.860;2023-10-19T11:41:14;98725.38;;;17.41;100.00
78845;BME280;68195;50.854;2.860;2023-10-19T11:43:40;98744.94;;;17.55;100.00
78845;BME280;68195;50.854;2.860;2023-10-19T11:46:09;98739.38;;;17.50;100.00
78845;BME280;68195;50.854;2.860;2023-10-19T11:48:37;98748.59;;;17.54;100.00
78845;BME280;68195;50.854;2.860;2023-10-19T11:51:05;98756.34;;;17.56;100.00
78845;BME280;68195;50.854;2.860;2023-10-19T11:53:37;98749.38;;;17.63;100.00
78845;BME280;68195;50.854;2.860;2023-10-19T11:56:06;98746.25;;;17.59;100.00
78845;BME280;68195;50.854;2.860;2023-10-19T11:58:32;98733.09;;;17.51;100.00
78845;BME280;68195;50.854;2.860;2023-10-19T12:01:00;98703.78;;;17.30;100.00
78845;BME280;68195;50.854;2.860;2023-10-19T12:03:26;98718.41;;;17.49;100.00
78845;BME280;68195;50.854;2.860;2023-10-19T12:05:52;98724.88;;;17.46;100.00
78845;BME280;68195;50.854;2.860;2023-10-19T12:08:23;98702.59;;;17.49;100.00
78845;BME280;68195;50.854;2.860;2023-10-19T12:10:50;98687.47;;;17.34;100.00
78845;BME280;68195;50.854;2.860;2023-10-19T12:13:16;98689.59;;;17.39;100.00
78845;BME280;68195;50.854;2.860;2023-10-19T12:15:42;98688.28;;;17.43;100.00
78845;BME280;68195;50.854;2.860;2023-10-19T12:18:17;98697.31;;;17.49;100.00
78845;BME280;68195;50.854;2.860;2023-10-19T12:20:45;98691.84;;;17.58;100.00
78845;BME280;68195;50.854;2.860;2023-10-19T12:23:14;98684.22;;;17.63;100.00
78845;BME280;68195;50.854;2.860;2023-10-19T12:25:39;98668.38;;;17.63;100.00
78845;BME280;68195;50.854;2.860;2023-10-19T12:28:07;98673.28;;;17.67;100.00
78845;BME280;68195;50.854;2.860;2023-10-19T12:30:33;98659.16;;;17.59;100.00
78845;BME280;68195;50.854;2.860;2023-10-19T12:33:07;98672.06;;;17.77;100.00
78845;BME280;68195;50.854;2.860;2023-10-19T12:35:43;98638.66;;;17.70;100.00
78845;BME280;68195;50.854;2.860;2023-10-19T12:38:20;98653.16;;;17.74;100.00
78845;BME280;68195;50.854;2.860;2023-10-19T12:40:47;98676.50;;;17.93;100.00
78845;BME280;68195;50.854;2.860;2023-10-19T12:43:15;98630.06;;;17.68;100.00
78845;BME280;68195;50.854;2.860;2023-10-19T12:45:46;98667.28;;;17.89;100.00
78845;BME280;68195;50.854;2.860;2023-10-19T12:48:22;98670.28;;;17.86;100.00
78845;BME280;68195;50.854;2.860;2023-10-19T12:50:50;98644.34;;;17.81;100.00
78845;BME280;68195;50.854;2.860;2023-10-19T12:53:18;98645.03;;;17.83;100.00
78845;BME280;68195;50.854;2.860;2023-10-19T12:55:50;98660.13;;;17.98;100.00
78845;BME280;68195;50.854;2.860;2023-10-19T12:58:15;98648.25;;;17.94;100.00
78845;BME280;68195;50.854;2.860;2023-10-19T13:00:45;98668.22;;;17.96;100.00
78845;BME280;68195;50.854;2.860;2023-10-19T13:03:12;98631.34;;;17.80;100.00
78845;BME280;68195;50.854;2.860;2023-10-19T13:05:44;98675.28;;;18.04;100.00
78845;BME280;68195;50.854;2.860;2023-10-19T13:08:15;98679.22;;;18.08;100.00
78845;BME280;68195;50.854;2.860;2023-10-19T13:10:45;98667.34;;;18.04;100.00
78845;BME280;68195;50.854;2.860;2023-10-19T13:13:12;98630.72;;;17.70;100.00
78845;BME280;68195;50.854;2.860;2023-10-19T13:15:42;98628.22;;;17.76;100.00